createdAt,value
2018-06-25T00:00:01.419Z,15.64
2018-06-25T00:02:30.785Z,15.60
2018-06-25T00:05:00.208Z,15.56
2018-06-25T00:07:29.592Z,15.58
2018-06-25T00:09:59.118Z,15.59
2018-06-25T00:12:28.811Z,15.56
2018-06-25T00:14:57.906Z,15.51
2018-06-25T00:17:26.987Z,15.52
2018-06-25T00:19:56.099Z,15.50
2018-06-25T00:22:25.192Z,15.46
2018-06-25T00:24:54.713Z,15.47
2018-06-25T00:27:24.218Z,15.43
2018-06-25T00:29:53.313Z,15.45
2018-06-25T00:32:22.428Z,15.42
2018-06-25T00:34:53.035Z,15.36
2018-06-25T00:37:22.122Z,15.41
2018-06-25T00:39:51.507Z,15.38
2018-06-25T00:42:20.638Z,15.41
2018-06-25T00:44:49.875Z,15.40
2018-06-25T00:47:18.995Z,15.33
2018-06-25T00:49:47.877Z,15.32
2018-06-25T00:52:17.011Z,15.29
2018-06-25T00:54:46.137Z,15.27
2018-06-25T00:57:15.226Z,15.27
2018-06-25T00:59:53.323Z,15.24
2018-06-25T01:02:23.382Z,15.20
2018-06-25T01:04:52.281Z,15.19
2018-06-25T01:07:21.723Z,15.13
2018-06-25T01:09:50.862Z,15.09
2018-06-25T01:12:19.952Z,15.07
2018-06-25T01:14:50.344Z,15.06
2018-06-25T01:17:20.329Z,15.02
2018-06-25T01:19:49.522Z,15.01
2018-06-25T01:22:19.264Z,15.00
2018-06-25T01:24:48.382Z,14.97
2018-06-25T01:27:17.476Z,14.93
2018-06-25T01:29:46.602Z,14.89
2018-06-25T01:32:15.702Z,14.86
2018-06-25T01:34:45.095Z,14.91
2018-06-25T01:37:14.222Z,14.87
2018-06-25T01:39:43.330Z,14.87
2018-06-25T01:42:12.871Z,14.84
2018-06-25T01:44:41.971Z,14.76
2018-06-25T01:47:11.083Z,14.74
2018-06-25T01:49:43.597Z,14.69
2018-06-25T01:52:12.698Z,14.70
2018-06-25T01:54:41.826Z,14.64
2018-06-25T01:57:10.938Z,14.68
2018-06-25T01:59:40.034Z,14.63
2018-06-25T02:02:09.194Z,14.65
2018-06-25T02:04:38.291Z,14.68
2018-06-25T02:07:07.382Z,14.71
2018-06-25T02:09:36.483Z,14.69
2018-06-25T02:12:05.603Z,14.74
2018-06-25T02:14:34.714Z,14.71
2018-06-25T02:17:04.247Z,14.69
2018-06-25T02:19:33.378Z,14.85
2018-06-25T02:22:02.491Z,14.80
2018-06-25T02:24:32.487Z,14.71
2018-06-25T02:27:01.798Z,14.66
2018-06-25T02:29:31.538Z,14.70
2018-06-25T02:32:02.460Z,14.63
2018-06-25T02:34:32.152Z,14.61
2018-06-25T02:37:02.082Z,14.61
2018-06-25T02:39:32.330Z,14.49
2018-06-25T02:42:01.901Z,14.46
2018-06-25T02:44:31.758Z,14.46
2018-06-25T02:47:01.116Z,14.57
2018-06-25T02:49:30.874Z,14.62
2018-06-25T02:52:00.722Z,14.47
2018-06-25T02:54:29.975Z,14.39
2018-06-25T02:56:59.775Z,14.26
2018-06-25T02:59:30.308Z,14.24
2018-06-25T03:01:59.410Z,14.16
2018-06-25T03:04:28.495Z,14.06
2018-06-25T03:06:57.642Z,14.02
2018-06-25T03:09:27.600Z,13.93
2018-06-25T03:11:56.767Z,13.90
2018-06-25T03:14:25.885Z,13.85
2018-06-25T03:16:54.947Z,13.82
2018-06-25T03:19:24.043Z,13.75
2018-06-25T03:21:53.651Z,13.78
2018-06-25T03:24:23.018Z,13.83
2018-06-25T03:26:52.139Z,13.86
2018-06-25T03:29:21.235Z,13.86
2018-06-25T03:31:50.363Z,13.96
2018-06-25T03:34:19.473Z,13.97
2018-06-25T03:36:48.542Z,13.84
2018-06-25T03:39:17.664Z,13.98
2018-06-25T03:41:46.743Z,14.05
2018-06-25T03:44:17.414Z,14.06
2018-06-25T03:46:46.491Z,14.14
2018-06-25T03:49:15.573Z,14.18
2018-06-25T03:51:44.674Z,14.19
2018-06-25T03:54:13.838Z,14.24
2018-06-25T03:56:42.947Z,14.26
2018-06-25T03:59:12.495Z,14.13
2018-06-25T04:01:41.727Z,14.25
2018-06-25T04:04:11.042Z,14.27
2018-06-25T04:06:40.808Z,14.24
2018-06-25T04:09:11.267Z,14.28
2018-06-25T04:11:41.150Z,14.42
2018-06-25T04:14:11.108Z,14.73
2018-06-25T04:16:40.210Z,14.77
2018-06-25T04:19:09.278Z,14.89
2018-06-25T04:21:38.515Z,14.97
2018-06-25T04:24:07.838Z,14.97
2018-06-25T04:26:37.043Z,14.90
2018-06-25T04:29:06.378Z,14.91
2018-06-25T04:31:35.698Z,15.03
2018-06-25T04:34:04.790Z,15.10
2018-06-25T04:36:33.906Z,15.21
2018-06-25T04:39:02.980Z,15.08
2018-06-25T04:41:32.292Z,15.44
2018-06-25T04:44:01.444Z,15.71
2018-06-25T04:46:30.552Z,16.08
2018-06-25T04:48:59.629Z,16.24
2018-06-25T04:51:28.816Z,16.08
2018-06-25T04:53:58.622Z,15.95
2018-06-25T04:56:27.686Z,15.84
2018-06-25T04:58:56.798Z,15.82
2018-06-25T05:01:25.883Z,15.83
2018-06-25T05:03:54.940Z,15.66
2018-06-25T05:06:24.039Z,15.76
2018-06-25T05:08:53.126Z,15.57
2018-06-25T05:11:22.242Z,15.72
2018-06-25T05:13:51.322Z,15.94
2018-06-25T05:16:20.413Z,16.02
2018-06-25T05:18:49.499Z,16.30
2018-06-25T05:21:19.258Z,16.38
2018-06-25T05:23:48.384Z,16.33
2018-06-25T05:26:17.458Z,16.17
2018-06-25T05:28:46.759Z,16.13
2018-06-25T05:31:15.955Z,16.06
2018-06-25T05:33:45.883Z,16.15
2018-06-25T05:36:15.427Z,16.14
2018-06-25T05:38:44.854Z,15.95
2018-06-25T05:41:13.939Z,15.96
2018-06-25T05:43:43.096Z,16.13
2018-06-25T05:46:12.994Z,16.01
2018-06-25T05:48:42.072Z,16.09
2018-06-25T05:51:11.278Z,16.12
2018-06-25T05:53:40.420Z,16.38
2018-06-25T05:56:09.634Z,16.21
2018-06-25T05:58:39.166Z,16.59
2018-06-25T06:01:08.288Z,16.63
2018-06-25T06:03:37.491Z,16.62
2018-06-25T06:06:06.687Z,16.89
2018-06-25T06:08:36.326Z,16.75
2018-06-25T06:11:05.418Z,17.15
2018-06-25T06:13:34.535Z,17.43
2018-06-25T06:16:03.629Z,17.51
2018-06-25T06:18:32.758Z,17.32
2018-06-25T06:21:02.346Z,17.84
2018-06-25T06:23:31.435Z,17.76
2018-06-25T06:26:00.530Z,17.86
2018-06-25T06:28:29.611Z,18.52
2018-06-25T06:31:00.013Z,19.02
2018-06-25T06:33:30.406Z,19.57
2018-06-25T06:35:59.505Z,20.12
2018-06-25T06:38:28.598Z,20.93
2018-06-25T06:40:57.710Z,21.20
2018-06-25T06:43:26.799Z,20.31
2018-06-25T06:45:55.891Z,20.99
2018-06-25T06:48:25.015Z,21.24
2018-06-25T06:50:54.098Z,21.44
2018-06-25T06:53:23.225Z,22.27
2018-06-25T06:55:52.566Z,21.70
2018-06-25T06:58:21.660Z,20.56
2018-06-25T07:00:50.729Z,19.97
2018-06-25T07:03:24.778Z,20.68
2018-06-25T07:05:54.851Z,20.67
2018-06-25T07:08:23.975Z,20.41
2018-06-25T07:10:53.071Z,20.37
2018-06-25T07:13:22.202Z,20.19
2018-06-25T07:15:51.454Z,19.10
2018-06-25T07:18:20.902Z,19.22
2018-06-25T07:20:50.129Z,19.38
2018-06-25T07:23:19.195Z,19.65
2018-06-25T07:25:48.304Z,19.68
2018-06-25T07:28:17.430Z,20.56
2018-06-25T07:30:46.506Z,20.73
2018-06-25T07:33:15.582Z,20.05
2018-06-25T07:35:45.419Z,18.94
2018-06-25T07:38:14.731Z,18.91
2018-06-25T07:40:44.215Z,19.37
2018-06-25T07:43:14.099Z,19.59
2018-06-25T07:45:43.203Z,18.56
2018-06-25T07:48:12.294Z,18.33
2018-06-25T07:50:41.422Z,18.83
2018-06-25T07:53:10.630Z,18.84
2018-06-25T07:55:39.819Z,18.15
2018-06-25T07:58:08.911Z,18.42
2018-06-25T08:00:38.032Z,18.84
2018-06-25T08:03:07.177Z,18.41
2018-06-25T08:05:36.267Z,19.62
2018-06-25T08:08:05.351Z,19.94
2018-06-25T08:10:34.484Z,20.53
2018-06-25T08:13:03.607Z,19.54
2018-06-25T08:15:34.316Z,20.52
2018-06-25T08:18:03.402Z,20.13
2018-06-25T08:20:32.563Z,19.50
2018-06-25T08:23:01.678Z,18.95
2018-06-25T08:25:30.751Z,18.98
2018-06-25T08:27:59.830Z,19.33
2018-06-25T08:30:28.926Z,20.36
2018-06-25T08:32:58.002Z,20.64
2018-06-25T08:35:27.119Z,20.89
2018-06-25T08:37:56.986Z,21.46
2018-06-25T08:40:26.281Z,23.29
2018-06-25T08:42:56.023Z,23.75
2018-06-25T08:45:26.414Z,24.70
2018-06-25T08:47:55.855Z,23.65
2018-06-25T08:50:25.787Z,24.89
2018-06-25T08:52:55.758Z,24.50
2018-06-25T08:55:25.114Z,22.23
2018-06-25T08:57:54.690Z,22.33
2018-06-25T09:00:24.419Z,22.44
2018-06-25T09:02:53.779Z,22.69
2018-06-25T09:05:22.934Z,22.74
2018-06-25T09:07:52.478Z,23.25
2018-06-25T09:10:22.217Z,25.16
2018-06-25T09:12:51.731Z,25.43
2018-06-25T09:15:21.202Z,24.85
2018-06-25T09:17:50.809Z,23.56
2018-06-25T09:20:20.798Z,21.42
2018-06-25T09:22:51.071Z,21.33
2018-06-25T09:25:20.174Z,23.68
2018-06-25T09:27:50.271Z,26.71
2018-06-25T09:30:20.450Z,27.88
2018-06-25T09:32:50.191Z,25.98
2018-06-25T09:35:19.575Z,24.24
2018-06-25T09:37:48.842Z,22.08
2018-06-25T09:40:18.330Z,21.72
2018-06-25T09:42:47.718Z,22.81
2018-06-25T09:45:17.086Z,23.02
2018-06-25T09:47:46.476Z,23.47
2018-06-25T09:50:16.315Z,24.66
2018-06-25T09:52:45.651Z,26.99
2018-06-25T09:55:15.399Z,24.80
2018-06-25T09:57:44.749Z,22.12
2018-06-25T10:00:20.998Z,21.00
2018-06-25T10:02:50.094Z,20.60
2018-06-25T10:05:19.178Z,21.20
2018-06-25T10:07:50.752Z,20.73
2018-06-25T10:10:20.282Z,22.27
2018-06-25T10:12:49.554Z,24.07
2018-06-25T10:15:18.934Z,25.15
2018-06-25T10:17:48.222Z,25.85
2018-06-25T10:20:17.671Z,28.12
2018-06-25T10:22:46.802Z,30.69
2018-06-25T10:25:17.251Z,28.51
2018-06-25T10:27:46.838Z,28.58
2018-06-25T10:30:16.659Z,26.36
2018-06-25T10:32:46.592Z,22.94
2018-06-25T10:35:16.491Z,23.64
2018-06-25T10:37:45.818Z,23.52
2018-06-25T10:40:15.234Z,24.29
2018-06-25T10:42:44.763Z,24.46
2018-06-25T10:45:14.161Z,25.59
2018-06-25T10:47:43.295Z,25.51
2018-06-25T10:50:12.527Z,25.59
2018-06-25T10:52:42.241Z,24.80
2018-06-25T10:55:11.574Z,29.56
2018-06-25T10:57:40.733Z,30.56
2018-06-25T11:00:11.059Z,27.70
2018-06-25T11:02:40.579Z,28.28
2018-06-25T11:05:10.409Z,25.46
2018-06-25T11:07:39.822Z,24.22
2018-06-25T11:10:09.117Z,22.75
2018-06-25T11:12:38.695Z,25.81
2018-06-25T11:15:07.978Z,26.53
2018-06-25T11:17:37.126Z,25.47
2018-06-25T11:20:06.681Z,25.73
2018-06-25T11:22:35.786Z,24.35
2018-06-25T11:25:05.139Z,27.73
2018-06-25T11:27:35.160Z,28.24
2018-06-25T11:30:04.439Z,31.13
2018-06-25T11:32:33.631Z,30.58
2018-06-25T11:35:02.923Z,32.85
2018-06-25T11:37:32.142Z,31.50
2018-06-25T11:40:01.458Z,30.77
2018-06-25T11:42:30.846Z,34.53
2018-06-25T11:45:01.147Z,31.51
2018-06-25T11:47:30.306Z,29.56
2018-06-25T11:49:59.772Z,30.53
2018-06-25T11:52:29.234Z,28.07
2018-06-25T11:54:58.327Z,25.44
2018-06-25T11:57:28.045Z,26.78
2018-06-25T11:59:58.588Z,30.11
2018-06-25T12:02:27.711Z,28.89
2018-06-25T12:04:56.774Z,29.54
2018-06-25T12:07:26.082Z,31.93
2018-06-25T12:09:55.951Z,29.84
2018-06-25T12:12:25.039Z,27.56
2018-06-25T12:14:54.247Z,32.14
2018-06-25T12:17:23.524Z,33.95
2018-06-25T12:19:53.247Z,36.68
2018-06-25T12:22:22.309Z,32.80
2018-06-25T12:24:51.425Z,26.27
2018-06-25T12:27:20.506Z,25.34
2018-06-25T12:29:49.647Z,25.35
2018-06-25T12:32:18.963Z,25.27
2018-06-25T12:34:48.066Z,24.94
2018-06-25T12:37:17.213Z,24.45
2018-06-25T12:39:47.602Z,26.67
2018-06-25T12:42:16.704Z,25.31
2018-06-25T12:44:45.805Z,26.19
2018-06-25T12:47:14.900Z,27.04
2018-06-25T12:49:48.095Z,26.64
2018-06-25T12:52:17.208Z,26.03
2018-06-25T12:54:46.322Z,25.36
2018-06-25T12:57:16.312Z,24.76
2018-06-25T12:59:45.196Z,27.25
2018-06-25T13:02:14.911Z,29.04
2018-06-25T13:04:44.353Z,28.32
2018-06-25T13:07:13.609Z,26.73
2018-06-25T13:09:42.778Z,25.43
2018-06-25T13:12:12.963Z,25.74
2018-06-25T13:14:42.334Z,25.24
2018-06-25T13:17:11.662Z,25.88
2018-06-25T13:19:41.367Z,31.03
2018-06-25T13:22:11.258Z,34.03
2018-06-25T13:24:40.579Z,34.59
2018-06-25T13:27:10.299Z,35.80
2018-06-25T13:29:39.534Z,34.61
2018-06-25T13:32:09.250Z,37.53
2018-06-25T13:34:38.359Z,33.17
2018-06-25T13:37:07.468Z,30.11
2018-06-25T13:39:36.674Z,28.00
2018-06-25T13:42:06.099Z,26.63
2018-06-25T13:44:35.268Z,27.82
2018-06-25T13:47:05.054Z,30.66
2018-06-25T13:49:34.611Z,29.07
2018-06-25T13:52:03.706Z,32.79
2018-06-25T13:54:34.440Z,32.49
2018-06-25T13:57:04.026Z,33.69
2018-06-25T13:59:33.330Z,29.89
2018-06-25T14:02:05.030Z,29.56
2018-06-25T14:04:34.554Z,30.23
2018-06-25T14:07:03.792Z,32.09
2018-06-25T14:09:32.902Z,31.21
2018-06-25T14:12:04.982Z,30.50
2018-06-25T14:14:34.539Z,31.30
2018-06-25T14:17:04.619Z,31.35
2018-06-25T14:19:33.894Z,31.71
2018-06-25T14:22:03.586Z,29.91
2018-06-25T14:24:50.351Z,28.87
2018-06-25T14:27:19.710Z,27.21
2018-06-25T14:29:49.026Z,27.04
2018-06-25T14:32:24.079Z,28.34
2018-06-25T14:34:59.858Z,30.39
2018-06-25T14:37:28.986Z,28.88
2018-06-25T14:39:58.090Z,30.10
2018-06-25T14:42:27.182Z,30.46
2018-06-25T14:44:56.327Z,31.74
2018-06-25T14:47:25.428Z,29.80
2018-06-25T14:49:54.562Z,27.44
2018-06-25T14:52:23.834Z,28.45
2018-06-25T14:54:52.903Z,31.72
2018-06-25T14:57:21.974Z,31.35
2018-06-25T14:59:51.062Z,28.76
2018-06-25T15:02:21.282Z,27.43
2018-06-25T15:04:53.172Z,29.20
2018-06-25T15:07:22.751Z,30.47
2018-06-25T15:09:51.806Z,30.51
2018-06-25T15:12:21.399Z,28.94
2018-06-25T15:14:50.886Z,26.12
2018-06-25T15:17:20.263Z,24.61
2018-06-25T15:19:49.626Z,24.98
2018-06-25T15:22:19.382Z,25.42
2018-06-25T15:24:48.598Z,24.79
2018-06-25T15:27:17.655Z,24.38
2018-06-25T15:29:46.806Z,23.50
2018-06-25T15:32:15.915Z,23.34
2018-06-25T15:34:44.985Z,23.31
2018-06-25T15:37:14.270Z,23.09
2018-06-25T15:39:43.460Z,23.08
2018-06-25T15:42:12.566Z,24.09
2018-06-25T15:44:41.792Z,23.74
2018-06-25T15:47:10.943Z,24.00
2018-06-25T15:49:40.745Z,24.96
2018-06-25T15:52:09.845Z,24.64
2018-06-25T15:54:39.425Z,25.48
2018-06-25T15:57:10.646Z,25.24
2018-06-25T15:59:40.064Z,25.13
2018-06-25T16:02:09.409Z,25.46
2018-06-25T16:04:39.245Z,25.47
2018-06-25T16:07:09.002Z,27.06
2018-06-25T16:09:38.584Z,26.53
2018-06-25T16:12:07.877Z,26.43
2018-06-25T16:14:36.965Z,27.52
2018-06-25T16:17:06.683Z,27.47
2018-06-25T16:19:35.779Z,27.07
2018-06-25T16:22:05.203Z,25.83
2018-06-25T16:24:35.151Z,26.66
2018-06-25T16:27:04.823Z,25.41
2018-06-25T16:29:35.158Z,25.32
2018-06-25T16:32:04.612Z,25.22
2018-06-25T16:34:34.213Z,26.20
2018-06-25T16:37:03.901Z,25.54
2018-06-25T16:39:33.735Z,26.56
2018-06-25T16:42:03.099Z,26.56
2018-06-25T16:44:32.470Z,26.45
2018-06-25T16:47:01.899Z,24.94
2018-06-25T16:49:31.809Z,24.67
2018-06-25T16:52:02.147Z,23.83
2018-06-25T16:54:31.338Z,24.05
2018-06-25T16:57:00.447Z,23.91
2018-06-25T16:59:29.633Z,23.54
2018-06-25T17:01:59.042Z,23.47
2018-06-25T17:04:28.598Z,23.56
2018-06-25T17:06:57.726Z,24.23
2018-06-25T17:09:26.829Z,24.80
2018-06-25T17:11:55.946Z,24.96
2018-06-25T17:14:25.098Z,24.58
2018-06-25T17:16:54.202Z,23.54
2018-06-25T17:19:23.290Z,23.32
2018-06-25T17:21:52.432Z,23.35
2018-06-25T17:24:24.799Z,23.27
2018-06-25T17:26:54.244Z,22.87
2018-06-25T17:29:23.707Z,22.93
2018-06-25T17:31:53.174Z,22.94
2018-06-25T17:34:22.525Z,22.34
2018-06-25T17:36:55.022Z,22.29
2018-06-25T17:39:24.535Z,22.04
2018-06-25T17:41:53.681Z,21.61
2018-06-25T17:44:22.829Z,21.37
2018-06-25T17:46:52.727Z,21.15
2018-06-25T17:49:21.818Z,20.95
2018-06-25T17:51:51.268Z,21.08
2018-06-25T17:54:20.403Z,21.11
2018-06-25T17:56:49.490Z,21.32
2018-06-25T17:59:18.738Z,21.57
2018-06-25T18:01:47.822Z,21.25
2018-06-25T18:04:16.902Z,21.48
2018-06-25T18:06:47.067Z,21.71
2018-06-25T18:09:16.310Z,21.81
2018-06-25T18:11:45.908Z,21.92
2018-06-25T18:14:15.371Z,21.97
2018-06-25T18:16:44.902Z,22.03
2018-06-25T18:19:14.834Z,21.81
2018-06-25T18:21:44.218Z,21.70
2018-06-25T18:24:13.518Z,21.74
2018-06-25T18:26:43.190Z,21.76
2018-06-25T18:29:12.260Z,21.83
2018-06-25T18:31:41.735Z,21.88
2018-06-25T18:34:10.905Z,21.43
2018-06-25T18:36:40.050Z,21.33
2018-06-25T18:39:12.098Z,21.01
2018-06-25T18:41:41.338Z,20.67
2018-06-25T18:44:10.662Z,20.52
2018-06-25T18:46:43.034Z,20.52
2018-06-25T18:49:12.182Z,20.57
2018-06-25T18:51:41.334Z,20.59
2018-06-25T18:54:10.888Z,20.53
2018-06-25T18:56:40.140Z,20.29
2018-06-25T18:59:09.230Z,20.14
2018-06-25T19:01:38.340Z,19.91
2018-06-25T19:04:07.465Z,19.67
2018-06-25T19:06:37.298Z,19.55
2018-06-25T19:09:10.930Z,19.35
2018-06-25T19:11:40.298Z,19.27
2018-06-25T19:14:09.704Z,19.27
2018-06-25T19:16:39.542Z,19.14
2018-06-25T19:19:08.895Z,18.92
2018-06-25T19:21:38.602Z,18.83
2018-06-25T19:24:07.962Z,18.82
2018-06-25T19:26:37.471Z,18.73
2018-06-25T19:29:06.750Z,18.52
2018-06-25T19:31:36.298Z,18.44
2018-06-25T19:34:05.902Z,18.34
2018-06-25T19:36:35.760Z,18.33
2018-06-25T19:39:10.690Z,18.21
2018-06-25T19:41:40.130Z,18.04
2018-06-25T19:44:10.019Z,17.75
2018-06-25T19:46:39.383Z,17.67
2018-06-25T19:49:09.252Z,17.72
2018-06-25T19:51:38.863Z,17.76
2018-06-25T19:54:08.882Z,17.71
2018-06-25T19:56:38.231Z,17.88
2018-06-25T19:59:08.123Z,17.74
2018-06-25T20:01:38.030Z,17.75
2018-06-25T20:04:07.579Z,17.71
2018-06-25T20:06:37.022Z,17.57
2018-06-25T20:09:10.781Z,17.51
2018-06-25T20:11:41.458Z,17.26
2018-06-25T20:14:10.673Z,17.22
2018-06-25T20:16:41.955Z,17.09
2018-06-25T20:19:11.013Z,17.07
2018-06-25T20:21:40.578Z,17.09
2018-06-25T20:24:09.742Z,17.20
2018-06-25T20:26:39.706Z,17.32
2018-06-25T20:29:08.866Z,17.27
2018-06-25T20:31:37.955Z,17.17
2018-06-25T20:34:07.104Z,17.08
2018-06-25T20:36:36.870Z,17.11
2018-06-25T20:39:10.452Z,16.92
2018-06-25T20:41:39.662Z,16.82
2018-06-25T20:44:08.868Z,16.76
2018-06-25T20:46:38.090Z,16.67
2018-06-25T20:49:08.905Z,16.79
2018-06-25T20:51:38.670Z,16.71
2018-06-25T20:54:08.150Z,16.77
2018-06-25T20:56:38.616Z,16.85
2018-06-25T20:59:08.394Z,16.78
2018-06-25T21:01:38.307Z,16.69
2018-06-25T21:04:08.198Z,16.70
2018-06-25T21:06:37.374Z,16.68
2018-06-25T21:09:10.516Z,16.54
2018-06-25T21:11:41.026Z,16.34
2018-06-25T21:14:10.326Z,16.14
2018-06-25T21:16:39.697Z,15.92
2018-06-25T21:19:08.862Z,15.93
2018-06-25T21:21:39.532Z,15.94
2018-06-25T21:24:08.894Z,15.80
2018-06-25T21:26:38.351Z,15.57
2018-06-25T21:29:07.759Z,15.32
2018-06-25T21:31:37.143Z,15.34
2018-06-25T21:34:07.743Z,15.44
2018-06-25T21:36:36.933Z,15.35
2018-06-25T21:39:08.437Z,15.26
2018-06-25T21:41:37.594Z,15.34
2018-06-25T21:44:06.718Z,15.10
2018-06-25T21:46:35.969Z,14.91
2018-06-25T21:49:05.159Z,14.91
2018-06-25T21:51:34.279Z,14.85
2018-06-25T21:54:04.327Z,14.93
2018-06-25T21:56:33.514Z,14.97
2018-06-25T21:59:02.688Z,15.00
2018-06-25T22:01:31.914Z,15.02
2018-06-25T22:04:01.337Z,14.84
2018-06-25T22:06:30.486Z,14.85
2018-06-25T22:09:00.251Z,15.14
2018-06-25T22:11:31.827Z,14.90
2018-06-25T22:14:02.011Z,14.64
2018-06-25T22:16:31.902Z,14.50
2018-06-25T22:19:01.025Z,14.35
2018-06-25T22:21:30.655Z,14.20
2018-06-25T22:23:59.969Z,14.30
2018-06-25T22:26:29.314Z,14.23
2018-06-25T22:28:58.873Z,14.14
2018-06-25T22:31:27.982Z,14.13
2018-06-25T22:33:57.091Z,14.14
2018-06-25T22:36:26.211Z,13.93
2018-06-25T22:38:55.546Z,13.89
2018-06-25T22:41:24.658Z,13.91
2018-06-25T22:43:58.761Z,13.84
2018-06-25T22:46:28.209Z,13.67
2018-06-25T22:48:57.386Z,13.55
2018-06-25T22:51:26.506Z,13.49
2018-06-25T22:53:55.898Z,13.39
2018-06-25T22:56:26.191Z,13.44
2018-06-25T22:59:14.135Z,13.44
2018-06-25T23:01:43.310Z,13.29
2018-06-25T23:04:12.476Z,13.18
2018-06-25T23:06:41.598Z,13.17
2018-06-25T23:09:11.682Z,13.01
2018-06-25T23:11:40.874Z,12.93
2018-06-25T23:14:10.561Z,12.82
2018-06-25T23:16:39.823Z,12.83
2018-06-25T23:19:08.992Z,12.83
2018-06-25T23:21:38.674Z,12.63
2018-06-25T23:24:08.413Z,12.55
2018-06-25T23:26:37.567Z,12.47
2018-06-25T23:29:06.671Z,12.51
2018-06-25T23:31:35.762Z,12.71
2018-06-25T23:34:04.886Z,12.63
2018-06-25T23:36:34.004Z,12.93
2018-06-25T23:39:03.110Z,12.86
2018-06-25T23:41:32.229Z,12.60
2018-06-25T23:44:01.336Z,12.52
2018-06-25T23:46:30.464Z,12.51
2018-06-25T23:48:59.568Z,12.35
2018-06-25T23:51:29.378Z,12.43
2018-06-25T23:53:58.520Z,12.32
2018-06-25T23:56:27.711Z,12.35
2018-06-25T23:58:57.176Z,12.18
